createdAt,value
2023-06-29T00:01:57.977Z,70.84
2023-06-29T00:04:26.899Z,70.82
2023-06-29T00:06:56.300Z,71.03
2023-06-29T00:09:23.512Z,70.86
2023-06-29T00:11:50.082Z,71.08
2023-06-29T00:14:16.719Z,71.26
2023-06-29T00:16:43.196Z,71.32
2023-06-29T00:19:09.746Z,71.56
2023-06-29T00:21:36.190Z,71.74
2023-06-29T00:24:03.676Z,71.78
2023-06-29T00:26:31.385Z,71.58
2023-06-29T00:28:58.246Z,71.42
2023-06-29T00:31:25.606Z,71.45
2023-06-29T00:33:52.334Z,71.76
2023-06-29T00:36:19.266Z,71.53
2023-06-29T00:38:45.736Z,71.08
2023-06-29T00:41:12.149Z,71.19
2023-06-29T00:43:38.594Z,71.69
2023-06-29T00:46:09.042Z,71.81
2023-06-29T00:48:39.682Z,71.75
2023-06-29T00:51:06.551Z,71.77
2023-06-29T00:53:33.212Z,71.79
2023-06-29T00:56:03.233Z,71.75
2023-06-29T00:58:30.327Z,71.89
2023-06-29T01:00:59.700Z,72.28
2023-06-29T01:03:26.567Z,71.89
2023-06-29T01:05:57.295Z,72.82
2023-06-29T01:08:30.055Z,73.06
2023-06-29T01:10:58.432Z,73.72
2023-06-29T01:13:27.012Z,74.05
2023-06-29T01:15:54.124Z,73.74
2023-06-29T01:18:21.075Z,73.65
2023-06-29T01:20:50.494Z,73.39
2023-06-29T01:23:26.188Z,73.11
2023-06-29T01:25:57.328Z,72.98
2023-06-29T01:28:23.787Z,73.24
2023-06-29T01:30:50.564Z,72.90
2023-06-29T01:33:19.472Z,73.28
2023-06-29T01:35:46.363Z,73.07
2023-06-29T01:38:27.417Z,73.52
2023-06-29T01:40:56.992Z,73.50
2023-06-29T01:43:25.907Z,73.18
2023-06-29T01:45:52.948Z,72.97
2023-06-29T01:48:19.681Z,73.26
2023-06-29T01:50:46.547Z,73.46
2023-06-29T01:53:12.993Z,73.68
2023-06-29T01:55:39.501Z,73.55
2023-06-29T01:58:05.952Z,74.22
2023-06-29T02:00:32.406Z,75.09
2023-06-29T02:02:58.961Z,75.04
2023-06-29T02:05:25.710Z,74.71
2023-06-29T02:07:52.527Z,74.76
2023-06-29T02:10:18.960Z,75.02
2023-06-29T02:12:45.447Z,75.49
2023-06-29T02:15:11.987Z,75.62
2023-06-29T02:17:38.815Z,75.11
2023-06-29T02:20:06.717Z,75.47
2023-06-29T02:22:33.225Z,74.91
2023-06-29T02:24:59.718Z,74.59
2023-06-29T02:27:26.174Z,75.26
2023-06-29T02:29:52.606Z,75.61
2023-06-29T02:32:19.076Z,76.22
2023-06-29T02:34:45.629Z,75.89
2023-06-29T02:37:12.089Z,76.31
2023-06-29T02:39:38.531Z,76.03
2023-06-29T02:42:05.166Z,76.63
2023-06-29T02:44:31.638Z,76.08
2023-06-29T02:46:59.626Z,76.45
2023-06-29T02:49:26.146Z,77.33
2023-06-29T02:51:52.578Z,77.77
2023-06-29T02:54:19.026Z,78.01
2023-06-29T02:56:45.487Z,77.68
2023-06-29T02:59:12.054Z,78.20
2023-06-29T03:01:38.528Z,78.85
2023-06-29T03:04:05.046Z,78.81
2023-06-29T03:06:31.473Z,78.91
2023-06-29T03:08:57.942Z,78.48
2023-06-29T03:11:24.620Z,78.49
2023-06-29T03:13:52.193Z,78.58
2023-06-29T03:16:18.745Z,77.85
2023-06-29T03:18:45.225Z,77.67
2023-06-29T03:21:18.018Z,78.10
2023-06-29T03:23:45.367Z,77.67
2023-06-29T03:26:11.792Z,77.84
2023-06-29T03:28:38.444Z,77.45
2023-06-29T03:31:04.931Z,77.91
2023-06-29T03:33:31.408Z,77.43
2023-06-29T03:35:57.865Z,77.85
2023-06-29T03:38:24.373Z,77.37
2023-06-29T03:40:51.017Z,77.36
2023-06-29T03:43:17.487Z,77.60
2023-06-29T03:45:44.314Z,77.02
2023-06-29T03:48:11.168Z,76.33
2023-06-29T03:50:37.682Z,76.11
2023-06-29T03:53:04.350Z,76.72
2023-06-29T03:55:30.882Z,76.28
2023-06-29T03:57:58.902Z,76.58
2023-06-29T04:00:25.512Z,75.86
2023-06-29T04:02:52.203Z,75.92
2023-06-29T04:05:18.717Z,75.63
2023-06-29T04:07:45.197Z,76.09
2023-06-29T04:10:11.683Z,75.28
2023-06-29T04:12:39.756Z,75.76
2023-06-29T04:15:06.834Z,75.61
2023-06-29T04:17:33.406Z,75.24
2023-06-29T04:19:59.952Z,75.45
2023-06-29T04:22:26.446Z,75.08
2023-06-29T04:24:52.892Z,74.91
2023-06-29T04:27:19.416Z,75.23
2023-06-29T04:29:45.929Z,74.89
2023-06-29T04:32:12.445Z,75.08
2023-06-29T04:34:38.889Z,74.79
2023-06-29T04:37:05.790Z,75.06
2023-06-29T04:39:32.296Z,75.29
2023-06-29T04:42:06.173Z,75.54
2023-06-29T04:44:35.292Z,75.66
2023-06-29T04:47:03.601Z,76.25
2023-06-29T04:49:38.407Z,76.08
2023-06-29T04:52:06.215Z,75.97
2023-06-29T04:54:33.313Z,75.78
2023-06-29T04:57:00.595Z,75.94
2023-06-29T04:59:28.228Z,75.06
2023-06-29T05:01:54.822Z,75.79
2023-06-29T05:04:21.484Z,75.56
2023-06-29T05:06:47.972Z,74.89
2023-06-29T05:09:14.572Z,75.18
2023-06-29T05:11:41.041Z,75.28
2023-06-29T05:14:07.523Z,74.92
2023-06-29T05:16:34.022Z,75.44
2023-06-29T05:19:00.657Z,74.94
2023-06-29T05:21:29.142Z,74.91
2023-06-29T05:23:55.836Z,74.64
2023-06-29T05:26:22.272Z,73.69
2023-06-29T05:31:22.529Z,73.75
2023-06-29T05:33:48.985Z,74.01
2023-06-29T05:36:15.513Z,74.04
2023-06-29T05:38:41.975Z,74.01
2023-06-29T05:41:08.496Z,74.09
2023-06-29T05:43:35.021Z,73.97
2023-06-29T05:46:01.509Z,73.30
2023-06-29T05:48:28.043Z,72.80
2023-06-29T05:50:54.599Z,73.04
2023-06-29T05:53:21.043Z,73.07
2023-06-29T05:55:48.222Z,73.37
2023-06-29T05:58:14.646Z,72.69
2023-06-29T06:00:41.210Z,71.33
2023-06-29T06:03:07.969Z,72.01
2023-06-29T06:05:34.551Z,72.05
2023-06-29T06:08:02.064Z,71.55
2023-06-29T06:10:28.536Z,71.13
2023-06-29T06:12:55.228Z,71.33
2023-06-29T06:15:21.678Z,71.15
2023-06-29T06:17:49.565Z,71.22
2023-06-29T06:20:16.110Z,71.77
2023-06-29T06:22:42.606Z,71.55
2023-06-29T06:25:09.847Z,71.61
2023-06-29T06:27:36.304Z,71.43
2023-06-29T06:30:05.822Z,71.53
2023-06-29T06:32:32.583Z,71.83
2023-06-29T06:34:59.014Z,71.20
2023-06-29T06:37:25.605Z,71.51
2023-06-29T06:39:52.043Z,71.01
2023-06-29T06:42:18.546Z,69.93
2023-06-29T06:44:56.827Z,70.17
2023-06-29T06:47:23.524Z,69.72
2023-06-29T06:49:49.980Z,68.69
2023-06-29T06:52:16.413Z,69.51
2023-06-29T06:54:42.922Z,68.39
2023-06-29T06:57:09.482Z,67.27
2023-06-29T06:59:35.938Z,68.75
2023-06-29T07:02:02.438Z,69.06
2023-06-29T07:04:29.025Z,69.19
2023-06-29T07:06:55.589Z,69.78
2023-06-29T07:09:22.061Z,69.61
2023-06-29T07:11:48.528Z,69.69
2023-06-29T07:14:19.197Z,68.66
2023-06-29T07:16:47.285Z,68.18
2023-06-29T07:24:05.900Z,67.80
2023-06-29T07:24:31.228Z,66.46
2023-06-29T07:26:57.688Z,66.80
2023-06-29T07:29:24.152Z,66.38
2023-06-29T07:31:50.720Z,66.15
2023-06-29T07:34:17.243Z,65.53
2023-06-29T07:36:43.815Z,64.87
2023-06-29T07:39:10.315Z,64.22
2023-06-29T07:41:36.812Z,64.37
2023-06-29T07:44:03.461Z,63.36
2023-06-29T07:46:32.749Z,64.19
2023-06-29T07:49:00.231Z,63.90
2023-06-29T07:51:33.002Z,63.89
2023-06-29T07:54:01.870Z,63.64
2023-06-29T07:58:39.128Z,62.45
2023-06-29T07:59:16.038Z,62.30
2023-06-29T08:01:42.543Z,61.30
2023-06-29T08:04:09.546Z,61.51
2023-06-29T08:06:49.880Z,61.07
2023-06-29T08:09:18.066Z,59.80
2023-06-29T08:11:44.542Z,59.57
2023-06-29T08:14:11.028Z,61.65
2023-06-29T08:16:37.544Z,61.15
2023-06-29T08:19:04.341Z,60.24
2023-06-29T08:21:30.909Z,61.04
2023-06-29T08:23:57.450Z,60.29
2023-06-29T08:26:26.104Z,60.00
2023-06-29T08:28:52.734Z,59.91
2023-06-29T08:31:20.456Z,59.97
2023-06-29T08:33:47.502Z,58.88
2023-06-29T08:36:13.982Z,57.36
2023-06-29T08:38:40.415Z,54.93
2023-06-29T08:41:07.125Z,55.67
2023-06-29T08:43:34.024Z,55.79
2023-06-29T08:46:02.815Z,54.36
2023-06-29T08:48:32.604Z,53.85
2023-06-29T08:51:07.749Z,55.10
2023-06-29T08:53:34.906Z,56.02
2023-06-29T08:56:02.539Z,57.47
2023-06-29T08:58:29.863Z,57.17
2023-06-29T09:00:57.269Z,56.97
2023-06-29T09:03:26.283Z,56.87
2023-06-29T09:05:56.810Z,56.58
2023-06-29T09:08:27.491Z,56.49
2023-06-29T09:10:54.633Z,57.94
2023-06-29T09:13:21.070Z,58.49
2023-06-29T09:15:49.608Z,57.56
2023-06-29T09:18:16.167Z,58.38
2023-06-29T09:20:43.029Z,57.78
2023-06-29T09:23:12.038Z,57.09
2023-06-29T09:25:39.966Z,56.21
2023-06-29T09:28:08.165Z,55.68
2023-06-29T09:30:39.675Z,55.41
2023-06-29T09:33:10.926Z,54.31
2023-06-29T09:35:44.518Z,54.04
2023-06-29T09:38:11.271Z,54.41
2023-06-29T09:40:52.207Z,52.08
2023-06-29T09:43:21.744Z,49.86
2023-06-29T09:45:48.835Z,46.51
2023-06-29T09:50:54.346Z,48.98
2023-06-29T09:53:34.511Z,49.85
2023-06-29T09:56:03.205Z,51.03
2023-06-29T09:58:31.161Z,50.95
2023-06-29T10:01:01.318Z,50.64
2023-06-29T10:03:28.803Z,51.36
2023-06-29T10:05:58.438Z,50.75
2023-06-29T10:08:28.323Z,51.72
2023-06-29T10:11:03.541Z,50.62
2023-06-29T10:13:34.273Z,50.02
2023-06-29T10:16:03.888Z,48.38
2023-06-29T10:18:33.414Z,49.10
2023-06-29T10:20:59.977Z,49.23
2023-06-29T10:23:27.286Z,50.22
2023-06-29T10:25:54.367Z,50.56
2023-06-29T10:28:22.393Z,50.54
2023-06-29T10:30:51.853Z,51.37
2023-06-29T10:33:22.580Z,50.60
2023-06-29T10:35:56.163Z,50.12
2023-06-29T10:38:31.108Z,49.84
2023-06-29T10:40:57.757Z,49.45
2023-06-29T10:43:29.299Z,49.51
2023-06-29T10:45:55.856Z,50.03
2023-06-29T10:48:31.348Z,51.69
2023-06-29T10:51:09.873Z,50.07
2023-06-29T10:53:36.451Z,49.73
2023-06-29T10:56:02.953Z,49.87
2023-06-29T10:58:37.452Z,50.86
2023-06-29T11:01:03.885Z,51.84
2023-06-29T11:03:30.491Z,51.91
2023-06-29T11:05:58.202Z,49.78
2023-06-29T11:08:25.556Z,51.56
2023-06-29T11:10:52.849Z,51.04
2023-06-29T11:13:20.980Z,51.25
2023-06-29T11:15:56.153Z,51.16
2023-06-29T11:18:23.754Z,50.98
2023-06-29T11:20:50.497Z,50.13
2023-06-29T11:23:18.117Z,51.23
2023-06-29T11:25:44.980Z,50.88
2023-06-29T11:28:16.002Z,51.19
2023-06-29T11:30:43.110Z,51.65
2023-06-29T11:33:24.332Z,52.60
2023-06-29T11:35:56.041Z,52.98
2023-06-29T11:38:22.587Z,53.76
2023-06-29T11:40:49.029Z,53.97
2023-06-29T11:43:16.035Z,54.88
2023-06-29T11:45:42.548Z,54.80
2023-06-29T11:48:09.220Z,55.67
2023-06-29T11:50:38.143Z,55.68
2023-06-29T11:53:04.952Z,56.54
2023-06-29T11:55:31.441Z,56.45
2023-06-29T11:57:57.894Z,56.35
2023-06-29T12:00:31.815Z,55.22
2023-06-29T12:03:06.066Z,54.78
2023-06-29T12:05:32.633Z,55.15
2023-06-29T12:08:06.180Z,54.11
2023-06-29T12:10:37.079Z,53.83
2023-06-29T12:13:04.192Z,52.98
2023-06-29T12:15:33.937Z,52.29
2023-06-29T12:18:13.409Z,51.43
2023-06-29T12:20:42.895Z,51.60
2023-06-29T12:23:13.873Z,54.24
2023-06-29T12:25:46.592Z,54.15
2023-06-29T12:28:13.777Z,54.16
2023-06-29T12:30:41.273Z,55.17
2023-06-29T12:33:09.278Z,55.10
2023-06-29T12:35:35.824Z,55.65
2023-06-29T12:38:03.057Z,56.18
2023-06-29T12:40:31.971Z,56.29
2023-06-29T12:43:00.208Z,56.86
2023-06-29T12:45:27.424Z,56.35
2023-06-29T12:47:53.965Z,56.30
2023-06-29T12:50:20.536Z,55.46
2023-06-29T12:52:48.297Z,54.52
2023-06-29T12:55:16.070Z,54.58
2023-06-29T12:57:44.462Z,55.51
2023-06-29T13:00:12.971Z,55.02
2023-06-29T13:02:39.601Z,55.00
2023-06-29T13:05:06.437Z,55.01
2023-06-29T13:07:32.977Z,55.27
2023-06-29T13:10:00.366Z,55.30
2023-06-29T13:12:27.688Z,55.79
2023-06-29T13:14:54.189Z,54.95
2023-06-29T13:17:21.096Z,55.13
2023-06-29T13:19:48.789Z,54.19
2023-06-29T13:22:15.626Z,53.87
2023-06-29T13:24:42.069Z,53.35
2023-06-29T13:27:08.535Z,53.41
2023-06-29T13:29:36.258Z,52.87
2023-06-29T13:32:03.347Z,53.13
2023-06-29T13:34:31.485Z,53.92
2023-06-29T13:36:59.236Z,54.13
2023-06-29T13:39:25.737Z,54.73
2023-06-29T13:41:52.187Z,54.59
2023-06-29T13:44:18.757Z,53.81
2023-06-29T13:46:47.038Z,54.61
2023-06-29T13:49:13.845Z,55.33
2023-06-29T13:51:40.270Z,55.42
2023-06-29T13:54:06.999Z,56.38
2023-06-29T13:56:39.080Z,56.02
2023-06-29T13:59:10.467Z,56.17
2023-06-29T14:01:39.348Z,56.34
2023-06-29T14:04:07.600Z,56.85
2023-06-29T14:06:37.052Z,57.48
2023-06-29T14:09:06.069Z,58.13
2023-06-29T14:11:32.962Z,57.00
2023-06-29T14:13:59.663Z,57.04
2023-06-29T14:16:26.969Z,57.42
2023-06-29T14:18:53.815Z,56.66
2023-06-29T14:21:21.250Z,55.87
2023-06-29T14:23:48.102Z,56.26
2023-06-29T14:26:15.296Z,56.13
2023-06-29T14:28:42.429Z,57.97
2023-06-29T14:31:09.261Z,56.85
2023-06-29T14:33:36.180Z,56.80
2023-06-29T14:36:06.486Z,57.48
2023-06-29T14:38:33.312Z,58.16
2023-06-29T14:41:00.022Z,58.20
2023-06-29T14:43:26.504Z,57.60
2023-06-29T14:45:54.222Z,57.71
2023-06-29T14:48:20.785Z,57.38
2023-06-29T14:50:48.029Z,57.67
2023-06-29T14:53:16.646Z,57.74
2023-06-29T14:55:44.694Z,58.30
2023-06-29T14:58:12.063Z,58.07
2023-06-29T15:00:38.540Z,57.61
2023-06-29T15:03:05.962Z,57.46
2023-06-29T15:05:32.673Z,57.79
2023-06-29T15:07:59.165Z,57.01
2023-06-29T15:10:25.602Z,56.93
2023-06-29T15:12:52.236Z,57.39
2023-06-29T15:15:18.975Z,57.01
2023-06-29T15:17:45.509Z,56.26
2023-06-29T15:20:12.416Z,56.01
2023-06-29T15:22:38.952Z,58.21
2023-06-29T15:25:06.150Z,59.33
2023-06-29T15:27:32.629Z,59.36
2023-06-29T15:30:01.582Z,59.39
2023-06-29T15:32:28.495Z,59.34
2023-06-29T15:34:55.263Z,59.53
2023-06-29T15:37:21.975Z,59.45
2023-06-29T15:39:48.490Z,60.55
2023-06-29T15:42:16.355Z,60.58
2023-06-29T15:44:43.228Z,61.09
2023-06-29T15:47:09.724Z,61.01
2023-06-29T15:49:36.905Z,61.26
2023-06-29T15:52:04.176Z,60.57
2023-06-29T15:54:30.628Z,61.37
2023-06-29T15:56:57.114Z,59.57
2023-06-29T15:59:23.579Z,59.47
2023-06-29T16:01:50.066Z,59.83
2023-06-29T16:04:17.546Z,59.91
2023-06-29T16:06:46.445Z,59.36
2023-06-29T16:09:13.026Z,59.62
2023-06-29T16:11:39.551Z,59.16
2023-06-29T16:14:06.054Z,59.69
2023-06-29T16:16:32.624Z,58.90
2023-06-29T16:18:59.091Z,58.58
2023-06-29T16:21:25.568Z,58.32
2023-06-29T16:23:52.069Z,58.53
2023-06-29T16:26:18.562Z,58.78
2023-06-29T16:28:45.301Z,58.05
2023-06-29T16:31:11.916Z,58.74
2023-06-29T16:33:38.544Z,58.44
2023-06-29T16:36:05.165Z,58.54
2023-06-29T16:38:31.698Z,57.75
2023-06-29T16:40:58.214Z,58.14
2023-06-29T16:43:24.676Z,59.23
2023-06-29T16:45:51.181Z,59.58
2023-06-29T16:48:17.726Z,59.53
2023-06-29T16:50:44.422Z,60.23
2023-06-29T16:53:11.050Z,60.36
2023-06-29T16:55:37.486Z,60.28
2023-06-29T16:58:04.062Z,59.82
2023-06-29T17:00:30.716Z,59.64
2023-06-29T17:02:57.462Z,60.08
2023-06-29T17:05:24.062Z,60.37
2023-06-29T17:07:50.544Z,60.29
2023-06-29T17:10:17.001Z,60.32
2023-06-29T17:12:43.544Z,60.61
2023-06-29T17:15:10.758Z,60.53
2023-06-29T17:17:37.307Z,60.49
2023-06-29T17:20:04.198Z,61.30
2023-06-29T17:22:30.785Z,60.90
2023-06-29T17:24:57.209Z,61.16
2023-06-29T17:27:23.701Z,61.09
2023-06-29T17:29:50.184Z,61.05
2023-06-29T17:32:16.867Z,61.13
2023-06-29T17:34:43.361Z,61.35
2023-06-29T17:37:10.568Z,61.59
2023-06-29T17:39:37.188Z,67.27
2023-06-29T17:42:03.934Z,77.11
2023-06-29T17:44:30.549Z,81.56
2023-06-29T17:46:57.255Z,82.77
2023-06-29T17:49:27.857Z,82.91
2023-06-29T17:51:55.016Z,83.11
2023-06-29T17:54:21.552Z,83.88
2023-06-29T17:56:48.041Z,83.96
2023-06-29T17:59:14.513Z,83.75
2023-06-29T18:01:41.004Z,83.44
2023-06-29T18:04:07.949Z,83.42
2023-06-29T18:06:34.523Z,83.48
2023-06-29T18:09:01.019Z,82.80
2023-06-29T18:11:28.697Z,83.56
2023-06-29T18:13:55.194Z,83.27
2023-06-29T18:16:21.816Z,83.06
2023-06-29T18:18:48.326Z,83.45
2023-06-29T18:21:14.971Z,83.41
2023-06-29T18:23:41.576Z,83.16
2023-06-29T18:26:08.414Z,83.18
2023-06-29T18:28:34.864Z,83.08
2023-06-29T18:31:01.433Z,83.16
2023-06-29T18:33:29.695Z,83.28
2023-06-29T18:35:56.182Z,83.27
2023-06-29T18:38:23.277Z,83.60
2023-06-29T18:40:49.797Z,82.59
2023-06-29T18:43:16.249Z,82.85
2023-06-29T18:45:42.882Z,83.46
2023-06-29T18:48:09.438Z,83.24
2023-06-29T18:50:36.696Z,82.96
2023-06-29T18:53:03.267Z,82.87
2023-06-29T18:55:35.030Z,83.33
2023-06-29T18:58:01.571Z,83.30
2023-06-29T19:00:28.051Z,83.03
2023-06-29T19:02:54.574Z,82.60
2023-06-29T19:05:21.108Z,82.45
2023-06-29T19:07:48.238Z,82.06
2023-06-29T19:10:14.903Z,82.82
2023-06-29T19:12:41.648Z,82.36
2023-06-29T19:15:10.363Z,82.33
2023-06-29T19:17:36.857Z,82.70
2023-06-29T19:20:03.690Z,82.11
2023-06-29T19:22:30.117Z,82.26
2023-06-29T19:24:56.748Z,82.47
2023-06-29T19:27:23.229Z,82.28
2023-06-29T19:29:49.710Z,82.21
2023-06-29T19:32:16.191Z,81.83
2023-06-29T19:34:42.814Z,82.18
2023-06-29T19:37:10.734Z,81.72
2023-06-29T19:39:37.249Z,81.99
2023-06-29T19:42:05.059Z,82.25
2023-06-29T19:44:31.523Z,82.45
2023-06-29T19:46:57.971Z,82.84
2023-06-29T19:49:24.442Z,83.47
2023-06-29T19:51:57.890Z,83.81
2023-06-29T19:54:24.618Z,83.09
2023-06-29T19:56:51.106Z,83.97
2023-06-29T19:59:17.558Z,83.45
2023-06-29T20:01:44.047Z,83.94
2023-06-29T20:04:10.527Z,84.03
2023-06-29T20:06:37.096Z,84.66
2023-06-29T20:09:05.061Z,84.89
2023-06-29T20:11:31.714Z,85.37
2023-06-29T20:13:58.207Z,84.47
2023-06-29T20:16:24.743Z,85.26
2023-06-29T20:18:52.182Z,85.00
2023-06-29T20:21:18.779Z,84.44
2023-06-29T20:23:51.197Z,84.77
2023-06-29T20:26:18.881Z,84.40
2023-06-29T20:28:45.749Z,84.05
2023-06-29T20:31:12.208Z,84.01
2023-06-29T20:33:38.718Z,84.05
2023-06-29T20:36:05.327Z,84.19
2023-06-29T20:38:31.792Z,83.91
2023-06-29T20:40:58.265Z,83.78
2023-06-29T20:43:24.822Z,83.44
2023-06-29T20:45:52.379Z,83.94
2023-06-29T20:48:19.206Z,84.00
2023-06-29T20:50:45.616Z,83.95
2023-06-29T20:53:12.126Z,83.36
2023-06-29T20:55:38.555Z,83.84
2023-06-29T20:58:05.370Z,83.71
2023-06-29T21:00:33.811Z,83.54
2023-06-29T21:03:00.240Z,83.42
2023-06-29T21:05:27.269Z,83.97
2023-06-29T21:07:54.048Z,83.95
2023-06-29T21:10:20.675Z,84.82
2023-06-29T21:12:47.681Z,84.49
2023-06-29T21:15:14.524Z,84.60
2023-06-29T21:17:41.284Z,84.73
2023-06-29T21:20:09.054Z,84.57
2023-06-29T21:22:36.600Z,84.54
2023-06-29T21:25:03.874Z,84.83
2023-06-29T21:27:31.796Z,84.87
2023-06-29T21:29:58.564Z,84.39
2023-06-29T21:32:25.334Z,84.29
2023-06-29T21:34:52.065Z,84.37
2023-06-29T21:37:20.892Z,84.30
2023-06-29T21:39:47.376Z,84.83
2023-06-29T21:42:14.165Z,84.57
2023-06-29T21:44:40.680Z,84.63
2023-06-29T21:47:07.353Z,84.60
2023-06-29T21:49:33.992Z,84.94
2023-06-29T21:52:00.433Z,85.16
2023-06-29T21:54:27.203Z,84.41
2023-06-29T21:56:53.685Z,84.47
2023-06-29T21:59:20.110Z,84.65
2023-06-29T22:01:46.616Z,84.80
2023-06-29T22:04:13.542Z,84.68
2023-06-29T22:06:40.968Z,85.25
2023-06-29T22:09:07.736Z,85.00
2023-06-29T22:11:34.177Z,85.22
2023-06-29T22:14:00.972Z,84.79
2023-06-29T22:16:29.314Z,84.73
2023-06-29T22:18:56.807Z,84.60
2023-06-29T22:21:25.177Z,84.60
2023-06-29T22:23:52.595Z,84.63
2023-06-29T22:26:19.262Z,84.98
2023-06-29T22:28:46.131Z,85.46
2023-06-29T22:31:15.030Z,85.00
2023-06-29T22:33:41.578Z,85.17
2023-06-29T22:36:08.128Z,84.50
2023-06-29T22:38:34.770Z,83.99
2023-06-29T22:41:01.276Z,84.57
2023-06-29T22:43:30.757Z,84.46
2023-06-29T22:45:57.380Z,84.83
2023-06-29T22:48:23.878Z,84.13
2023-06-29T22:50:50.389Z,84.13
2023-06-29T22:53:16.830Z,83.88
2023-06-29T22:55:44.308Z,84.21
2023-06-29T22:58:10.931Z,84.20
2023-06-29T23:00:37.901Z,83.79
2023-06-29T23:03:04.466Z,83.73
2023-06-29T23:05:30.984Z,83.87
2023-06-29T23:07:58.514Z,84.10
2023-06-29T23:10:28.128Z,83.99
2023-06-29T23:12:54.649Z,83.66
2023-06-29T23:15:26.824Z,83.86
2023-06-29T23:17:54.670Z,83.93
2023-06-29T23:20:21.168Z,84.39
2023-06-29T23:22:47.889Z,84.35
2023-06-29T23:25:14.725Z,83.57
2023-06-29T23:27:44.622Z,84.16
2023-06-29T23:30:16.521Z,83.98
2023-06-29T23:32:46.028Z,83.57
2023-06-29T23:35:12.593Z,83.67
2023-06-29T23:37:39.427Z,84.31
2023-06-29T23:40:11.377Z,83.75
2023-06-29T23:42:38.605Z,84.18
2023-06-29T23:45:07.565Z,84.02
2023-06-29T23:47:34.018Z,83.54
2023-06-29T23:50:00.736Z,83.47
2023-06-29T23:52:27.193Z,83.63
2023-06-29T23:54:54.741Z,83.61
2023-06-29T23:57:21.437Z,83.68
2023-06-29T23:59:47.975Z,83.38
